sensor_id;sensor_type;location;lat;lon;timestamp;pressure;altitude;pressure_sealevel;temperature;humidity
45369;BME280;51342;55.250;37.668;2022-08-19T00:04:16;100129.03;;;19.02;56.66
45369;BME280;51342;55.250;37.668;2022-08-19T00:06:49;100120.25;;;19.00;56.18
45369;BME280;51342;55.250;37.668;2022-08-19T00:09:22;100131.66;;;19.02;55.39
45369;BME280;51342;55.250;37.668;2022-08-19T00:11:54;100129.03;;;19.02;55.12
45369;BME280;51342;55.250;37.668;2022-08-19T00:14:27;100125.56;;;19.03;54.45
45369;BME280;51342;55.250;37.668;2022-08-19T00:17:02;100122.97;;;19.05;53.99
45369;BME280;51342;55.250;37.668;2022-08-19T00:19:35;100122.19;;;19.08;54.73
45369;BME280;51342;55.250;37.668;2022-08-19T00:22:07;100128.28;;;19.06;54.55
45369;BME280;51342;55.250;37.668;2022-08-19T00:24:39;100129.22;;;19.09;54.80
45369;BME280;51342;55.250;37.668;2022-08-19T00:27:12;100134.34;;;19.05;54.41
45369;BME280;51342;55.250;37.668;2022-08-19T00:29:44;100137.09;;;19.09;54.29
45369;BME280;51342;55.250;37.668;2022-08-19T00:32:16;100134.31;;;19.04;54.36
45369;BME280;51342;55.250;37.668;2022-08-19T00:34:47;100143.00;;;19.01;55.54
45369;BME280;51342;55.250;37.668;2022-08-19T00:37:24;100143.72;;;18.97;55.27
45369;BME280;51342;55.250;37.668;2022-08-19T00:39:57;100148.94;;;18.96;55.19
45369;BME280;51342;55.250;37.668;2022-08-19T00:42:29;100155.06;;;18.96;55.87
45369;BME280;51342;55.250;37.668;2022-08-19T00:45:01;100153.19;;;18.92;55.81
45369;BME280;51342;55.250;37.668;2022-08-19T00:47:32;100149.72;;;18.93;55.78
45369;BME280;51342;55.250;37.668;2022-08-19T00:50:04;100145.34;;;18.94;55.17
45369;BME280;51342;55.250;37.668;2022-08-19T00:52:40;100147.97;;;18.94;55.86
45369;BME280;51342;55.250;37.668;2022-08-19T00:55:20;100152.41;;;18.95;55.58
45369;BME280;51342;55.250;37.668;2022-08-19T00:57:56;100140.94;;;18.91;55.09
45369;BME280;51342;55.250;37.668;2022-08-19T01:00:30;100147.94;;;18.92;55.87
45369;BME280;51342;55.250;37.668;2022-08-19T01:03:12;100158.41;;;18.91;57.04
45369;BME280;51342;55.250;37.668;2022-08-19T01:05:45;100161.78;;;18.88;57.02
45369;BME280;51342;55.250;37.668;2022-08-19T01:08:18;100162.50;;;18.83;56.40
45369;BME280;51342;55.250;37.668;2022-08-19T01:10:56;100161.53;;;18.79;57.72
45369;BME280;51342;55.250;37.668;2022-08-19T01:13:32;100155.44;;;18.80;57.47
45369;BME280;51342;55.250;37.668;2022-08-19T01:16:07;100156.16;;;18.76;57.54
45369;BME280;51342;55.250;37.668;2022-08-19T01:18:42;100149.03;;;18.72;57.85
45369;BME280;51342;55.250;37.668;2022-08-19T01:21:25;100159.44;;;18.69;57.36
45369;BME280;51342;55.250;37.668;2022-08-19T01:23:58;100167.25;;;18.67;57.05
45369;BME280;51342;55.250;37.668;2022-08-19T01:26:30;100175.13;;;18.67;57.50
45369;BME280;51342;55.250;37.668;2022-08-19T01:29:02;100168.16;;;18.68;57.13
45369;BME280;51342;55.250;37.668;2022-08-19T01:31:34;100161.09;;;18.67;57.67
45369;BME280;51342;55.250;37.668;2022-08-19T01:34:06;100162.91;;;18.68;56.80
45369;BME280;51342;55.250;37.668;2022-08-19T01:36:41;100162.91;;;18.68;56.78
45369;BME280;51342;55.250;37.668;2022-08-19T01:39:18;100154.19;;;18.69;57.15
45369;BME280;51342;55.250;37.668;2022-08-19T01:41:50;100157.66;;;18.68;57.35
45369;BME280;51342;55.250;37.668;2022-08-19T01:44:25;100158.38;;;18.64;57.63
45369;BME280;51342;55.250;37.668;2022-08-19T01:46:57;100162.72;;;18.63;57.27
45369;BME280;51342;55.250;37.668;2022-08-19T01:49:28;100160.91;;;18.61;57.16
45369;BME280;51342;55.250;37.668;2022-08-19T01:52:00;100158.28;;;18.61;56.92
45369;BME280;51342;55.250;37.668;2022-08-19T01:54:32;100160.84;;;18.59;56.97
45369;BME280;51342;55.250;37.668;2022-08-19T01:57:07;100158.22;;;18.59;57.21
45369;BME280;51342;55.250;37.668;2022-08-19T01:59:41;100159.94;;;18.59;57.22
45369;BME280;51342;55.250;37.668;2022-08-19T02:02:14;100164.31;;;18.58;57.80
45369;BME280;51342;55.250;37.668;2022-08-19T02:04:46;100163.41;;;18.58;57.94
45369;BME280;51342;55.250;37.668;2022-08-19T02:07:20;100170.28;;;18.54;57.80
45369;BME280;51342;55.250;37.668;2022-08-19T02:09:52;100167.59;;;18.52;58.07
45369;BME280;51342;55.250;37.668;2022-08-19T02:12:24;100167.59;;;18.52;58.65
45369;BME280;51342;55.250;37.668;2022-08-19T02:14:55;100163.25;;;18.53;58.71
45369;BME280;51342;55.250;37.668;2022-08-19T02:17:27;100169.19;;;18.47;58.76
45369;BME280;51342;55.250;37.668;2022-08-19T02:20:00;100170.91;;;18.47;58.83
45369;BME280;51342;55.250;37.668;2022-08-19T02:22:34;100170.88;;;18.45;58.97
45369;BME280;51342;55.250;37.668;2022-08-19T02:25:06;100169.09;;;18.44;60.00
45369;BME280;51342;55.250;37.668;2022-08-19T02:27:39;100177.72;;;18.42;59.79
45369;BME280;51342;55.250;37.668;2022-08-19T02:30:14;100181.09;;;18.38;60.50
45369;BME280;51342;55.250;37.668;2022-08-19T02:32:47;100189.75;;;18.35;60.27
45369;BME280;51342;55.250;37.668;2022-08-19T02:35:19;100190.66;;;18.37;60.53
45369;BME280;51342;55.250;37.668;2022-08-19T02:37:50;100189.84;;;18.38;60.32
45369;BME280;51342;55.250;37.668;2022-08-19T02:40:46;100191.50;;;18.36;60.92
45369;BME280;51342;55.250;37.668;2022-08-19T02:43:21;100194.13;;;18.36;61.14
45369;BME280;51342;55.250;37.668;2022-08-19T02:45:53;100194.09;;;18.35;61.42
45369;BME280;51342;55.250;37.668;2022-08-19T02:48:25;100197.47;;;18.32;61.54
45369;BME280;51342;55.250;37.668;2022-08-19T02:50:57;100192.09;;;18.27;61.98
45369;BME280;51342;55.250;37.668;2022-08-19T02:53:29;100199.09;;;18.27;61.77
45369;BME280;51342;55.250;37.668;2022-08-19T02:56:00;100207.75;;;18.26;62.39
45369;BME280;51342;55.250;37.668;2022-08-19T02:58:32;100204.25;;;18.25;62.46
45369;BME280;51342;55.250;37.668;2022-08-19T03:01:03;100201.69;;;18.27;61.89
45369;BME280;51342;55.250;37.668;2022-08-19T03:03:35;100196.59;;;18.32;62.42
45369;BME280;51342;55.250;37.668;2022-08-19T03:06:13;100194.78;;;18.29;62.98
45369;BME280;51342;55.250;37.668;2022-08-19T03:08:45;100194.75;;;18.04;63.09
45369;BME280;51342;55.250;37.668;2022-08-19T03:11:25;100183.88;;;18.17;63.35
45369;BME280;51342;55.250;37.668;2022-08-19T03:13:58;100190.16;;;18.22;63.21
45369;BME280;51342;55.250;37.668;2022-08-19T03:16:31;100190.25;;;18.25;62.47
45369;BME280;51342;55.250;37.668;2022-08-19T03:19:03;100192.16;;;18.29;63.44
45369;BME280;51342;55.250;37.668;2022-08-19T03:21:35;100189.56;;;18.31;62.61
45369;BME280;51342;55.250;37.668;2022-08-19T03:24:08;100187.97;;;18.34;62.29
45369;BME280;51342;55.250;37.668;2022-08-19T03:26:42;100192.31;;;18.34;62.02
45369;BME280;51342;55.250;37.668;2022-08-19T03:29:15;100196.88;;;18.39;61.82
45369;BME280;51342;55.250;37.668;2022-08-19T03:31:46;100200.44;;;18.41;62.05
45369;BME280;51342;55.250;37.668;2022-08-19T03:34:24;100205.81;;;18.46;61.49
45369;BME280;51342;55.250;37.668;2022-08-19T03:37:04;100208.50;;;18.47;62.14
45369;BME280;51342;55.250;37.668;2022-08-19T03:39:37;100202.41;;;18.48;61.85
45369;BME280;51342;55.250;37.668;2022-08-19T03:42:10;100201.63;;;18.51;61.13
45369;BME280;51342;55.250;37.668;2022-08-19T03:44:42;100207.75;;;18.51;61.75
45369;BME280;51342;55.250;37.668;2022-08-19T03:47:15;100212.19;;;18.54;61.43
45369;BME280;51342;55.250;37.668;2022-08-19T03:49:48;100208.75;;;18.55;61.26
45369;BME280;51342;55.250;37.668;2022-08-19T03:52:19;100201.78;;;18.56;61.30
45369;BME280;51342;55.250;37.668;2022-08-19T03:54:51;100206.28;;;18.60;60.93
45369;BME280;51342;55.250;37.668;2022-08-19T03:57:22;100201.91;;;18.60;60.85
45369;BME280;51342;55.250;37.668;2022-08-19T03:59:54;100194.13;;;18.62;60.49
45369;BME280;51342;55.250;37.668;2022-08-19T04:02:25;100197.72;;;18.65;60.11
45369;BME280;51342;55.250;37.668;2022-08-19T04:04:57;100186.50;;;18.68;60.23
45369;BME280;51342;55.250;37.668;2022-08-19T04:07:28;100188.28;;;18.69;60.35
45369;BME280;51342;55.250;37.668;2022-08-19T04:10:00;100188.44;;;18.73;60.12
45369;BME280;51342;55.250;37.668;2022-08-19T04:12:31;100185.00;;;18.76;59.86
45369;BME280;51342;55.250;37.668;2022-08-19T04:15:03;100186.00;;;18.79;59.77
45369;BME280;51342;55.250;37.668;2022-08-19T04:17:37;100192.13;;;18.80;59.56
45369;BME280;51342;55.250;37.668;2022-08-19T04:20:08;100191.41;;;18.84;59.66
45369;BME280;51342;55.250;37.668;2022-08-19T04:22:41;100190.75;;;18.91;59.15
45369;BME280;51342;55.250;37.668;2022-08-19T04:25:12;100190.00;;;18.95;58.99
45369;BME280;51342;55.250;37.668;2022-08-19T04:27:44;100197.28;;;19.05;59.03
45369;BME280;51342;55.250;37.668;2022-08-19T04:30:20;100194.94;;;19.13;58.66
45369;BME280;51342;55.250;37.668;2022-08-19T04:32:53;100198.63;;;19.20;58.18
45369;BME280;51342;55.250;37.668;2022-08-19T04:35:25;100210.22;;;19.28;58.32
45369;BME280;51342;55.250;37.668;2022-08-19T04:37:56;100205.97;;;19.31;58.74
45369;BME280;51342;55.250;37.668;2022-08-19T04:40:28;100206.19;;;19.39;58.05
45369;BME280;51342;55.250;37.668;2022-08-19T04:43:17;100210.00;;;19.49;58.12
45369;BME280;51342;55.250;37.668;2022-08-19T04:45:49;100200.72;;;19.60;57.86
45369;BME280;51342;55.250;37.668;2022-08-19T04:48:23;100202.78;;;19.70;57.13
45369;BME280;51342;55.250;37.668;2022-08-19T04:50:58;100209.19;;;19.80;57.57
45369;BME280;51342;55.250;37.668;2022-08-19T04:53:32;100206.81;;;19.89;57.17
45369;BME280;51342;55.250;37.668;2022-08-19T04:56:15;100215.63;;;19.91;56.87
45369;BME280;51342;55.250;37.668;2022-08-19T04:58:49;100201.81;;;19.98;56.26
45369;BME280;51342;55.250;37.668;2022-08-19T05:01:27;100202.72;;;20.00;57.01
45369;BME280;51342;55.250;37.668;2022-08-19T05:04:05;100204.50;;;20.01;56.74
45369;BME280;51342;55.250;37.668;2022-08-19T05:06:37;100214.34;;;20.08;56.34
45369;BME280;51342;55.250;37.668;2022-08-19T05:09:10;100203.91;;;20.11;56.19
45369;BME280;51342;55.250;37.668;2022-08-19T05:11:42;100221.41;;;20.11;56.04
45369;BME280;51342;55.250;37.668;2022-08-19T05:14:13;100223.13;;;20.09;55.48
45369;BME280;51342;55.250;37.668;2022-08-19T05:16:45;100223.06;;;20.07;56.27
45369;BME280;51342;55.250;37.668;2022-08-19T05:19:17;100232.69;;;20.07;55.91
45369;BME280;51342;55.250;37.668;2022-08-19T05:22:06;100223.94;;;20.08;56.38
45369;BME280;51342;55.250;37.668;2022-08-19T05:24:58;100230.16;;;20.10;56.42
45369;BME280;51342;55.250;37.668;2022-08-19T05:27:31;100224.03;;;20.11;57.05
45369;BME280;51342;55.250;37.668;2022-08-19T05:30:05;100215.31;;;20.12;56.60
45369;BME280;51342;55.250;37.668;2022-08-19T05:32:38;100211.91;;;20.15;56.49
45369;BME280;51342;55.250;37.668;2022-08-19T05:35:10;100212.81;;;20.17;56.64
45369;BME280;51342;55.250;37.668;2022-08-19T05:37:42;100214.69;;;20.21;56.46
45369;BME280;51342;55.250;37.668;2022-08-19T05:40:14;100217.47;;;20.27;56.42
45369;BME280;51342;55.250;37.668;2022-08-19T05:42:46;100208.00;;;20.33;56.71
45369;BME280;51342;55.250;37.668;2022-08-19T05:45:17;100201.16;;;20.40;55.87
45369;BME280;51342;55.250;37.668;2022-08-19T05:47:49;100203.09;;;20.46;55.96
45369;BME280;51342;55.250;37.668;2022-08-19T05:50:21;100205.22;;;20.60;56.20
45369;BME280;51342;55.250;37.668;2022-08-19T05:52:53;100203.75;;;20.72;55.37
45369;BME280;51342;55.250;37.668;2022-08-19T05:55:25;100201.28;;;20.78;55.99
45369;BME280;51342;55.250;37.668;2022-08-19T05:57:56;100198.81;;;20.85;55.90
45369;BME280;51342;55.250;37.668;2022-08-19T06:00:28;100194.66;;;20.94;54.71
45369;BME280;51342;55.250;37.668;2022-08-19T06:03:01;100195.66;;;21.00;54.96
45369;BME280;51342;55.250;37.668;2022-08-19T06:05:34;100196.59;;;21.02;55.01
45369;BME280;51342;55.250;37.668;2022-08-19T06:08:05;100196.59;;;21.04;54.57
45369;BME280;51342;55.250;37.668;2022-08-19T06:10:38;100206.44;;;21.11;54.58
45369;BME280;51342;55.250;37.668;2022-08-19T06:13:10;100204.00;;;21.20;54.36
45369;BME280;51342;55.250;37.668;2022-08-19T06:15:41;100200.78;;;21.32;53.98
45369;BME280;51342;55.250;37.668;2022-08-19T06:18:16;100204.66;;;21.49;53.16
45369;BME280;51342;55.250;37.668;2022-08-19T06:20:47;100195.34;;;21.65;53.74
45369;BME280;51342;55.250;37.668;2022-08-19T06:23:20;100199.22;;;21.84;53.60
45369;BME280;51342;55.250;37.668;2022-08-19T06:25:55;100196.91;;;21.99;53.04
45369;BME280;51342;55.250;37.668;2022-08-19T06:28:26;100198.03;;;22.10;52.21
45369;BME280;51342;55.250;37.668;2022-08-19T06:30:58;100200.88;;;22.21;52.39
45369;BME280;51342;55.250;37.668;2022-08-19T06:33:29;100205.47;;;22.33;52.25
45369;BME280;51342;55.250;37.668;2022-08-19T06:36:01;100205.69;;;22.45;51.96
45369;BME280;51342;55.250;37.668;2022-08-19T06:38:32;100209.41;;;22.56;51.29
45369;BME280;51342;55.250;37.668;2022-08-19T06:41:07;100199.03;;;22.67;51.65
45369;BME280;51342;55.250;37.668;2022-08-19T06:43:39;100197.34;;;22.72;51.46
45369;BME280;51342;55.250;37.668;2022-08-19T06:46:13;100206.34;;;22.85;50.40
45369;BME280;51342;55.250;37.668;2022-08-19T06:48:46;100214.38;;;22.89;50.50
45369;BME280;51342;55.250;37.668;2022-08-19T06:51:18;100206.44;;;22.88;49.78
45369;BME280;51342;55.250;37.668;2022-08-19T06:53:54;100203.72;;;22.85;51.08
45369;BME280;51342;55.250;37.668;2022-08-19T06:56:28;100206.34;;;22.85;50.61
45369;BME280;51342;55.250;37.668;2022-08-19T06:59:11;100212.50;;;22.84;50.53
45369;BME280;51342;55.250;37.668;2022-08-19T07:01:51;100204.50;;;22.79;50.53
45369;BME280;51342;55.250;37.668;2022-08-19T07:04:27;100209.84;;;22.84;50.15
45369;BME280;51342;55.250;37.668;2022-08-19T07:07:10;100213.38;;;22.84;50.61
45369;BME280;51342;55.250;37.668;2022-08-19T07:09:44;100209.13;;;22.91;51.30
45369;BME280;51342;55.250;37.668;2022-08-19T07:12:15;100206.53;;;22.94;50.86
45369;BME280;51342;55.250;37.668;2022-08-19T07:14:47;100209.28;;;23.01;50.93
45369;BME280;51342;55.250;37.668;2022-08-19T07:17:20;100207.78;;;23.19;50.65
45369;BME280;51342;55.250;37.668;2022-08-19T07:19:52;100214.97;;;23.31;49.88
45369;BME280;51342;55.250;37.668;2022-08-19T07:22:24;100209.91;;;23.44;50.37
45369;BME280;51342;55.250;37.668;2022-08-19T07:24:56;100211.00;;;23.60;50.49
45369;BME280;51342;55.250;37.668;2022-08-19T07:27:27;100211.19;;;23.74;50.74
45369;BME280;51342;55.250;37.668;2022-08-19T07:29:59;100200.78;;;23.88;50.74
45369;BME280;51342;55.250;37.668;2022-08-19T07:32:31;100203.53;;;23.98;48.63
45369;BME280;51342;55.250;37.668;2022-08-19T07:35:02;100201.84;;;24.05;49.08
45369;BME280;51342;55.250;37.668;2022-08-19T07:37:36;100201.06;;;24.15;48.35
45369;BME280;51342;55.250;37.668;2022-08-19T07:40:08;100201.13;;;24.20;47.13
45369;BME280;51342;55.250;37.668;2022-08-19T07:42:40;100196.78;;;24.23;47.48
45369;BME280;51342;55.250;37.668;2022-08-19T07:45:13;100202.13;;;24.31;47.58
45369;BME280;51342;55.250;37.668;2022-08-19T07:47:46;100203.09;;;24.38;47.81
45369;BME280;51342;55.250;37.668;2022-08-19T07:50:19;100202.25;;;24.42;46.94
45369;BME280;51342;55.250;37.668;2022-08-19T07:52:51;100199.56;;;24.39;47.72
45369;BME280;51342;55.250;37.668;2022-08-19T07:55:24;100196.97;;;24.45;46.77
45369;BME280;51342;55.250;37.668;2022-08-19T07:57:56;100198.75;;;24.44;47.67
45369;BME280;51342;55.250;37.668;2022-08-19T08:00:28;100194.44;;;24.52;47.47
45369;BME280;51342;55.250;37.668;2022-08-19T08:02:59;100202.47;;;24.65;47.96
45369;BME280;51342;55.250;37.668;2022-08-19T08:05:31;100211.38;;;24.74;47.22
45369;BME280;51342;55.250;37.668;2022-08-19T08:08:21;100217.59;;;24.81;45.42
45369;BME280;51342;55.250;37.668;2022-08-19T08:11:12;100215.81;;;24.81;44.99
45369;BME280;51342;55.250;37.668;2022-08-19T08:13:44;100214.06;;;24.80;44.60
45369;BME280;51342;55.250;37.668;2022-08-19T08:16:15;100215.81;;;24.81;44.32
45369;BME280;51342;55.250;37.668;2022-08-19T08:18:47;100207.84;;;24.77;43.79
45369;BME280;51342;55.250;37.668;2022-08-19T08:21:18;100228.13;;;24.75;44.38
45369;BME280;51342;55.250;37.668;2022-08-19T08:23:50;100220.19;;;24.75;43.80
45369;BME280;51342;55.250;37.668;2022-08-19T08:26:26;100214.91;;;24.76;44.27
45369;BME280;51342;55.250;37.668;2022-08-19T08:28:58;100216.72;;;24.80;44.03
45369;BME280;51342;55.250;37.668;2022-08-19T08:31:29;100215.88;;;24.86;44.57
45369;BME280;51342;55.250;37.668;2022-08-19T08:34:01;100217.69;;;24.92;43.62
45369;BME280;51342;55.250;37.668;2022-08-19T08:36:39;100225.63;;;24.95;43.44
45369;BME280;51342;55.250;37.668;2022-08-19T08:39:17;100207.97;;;24.92;43.72
45369;BME280;51342;55.250;37.668;2022-08-19T08:42:06;100212.44;;;24.99;45.39
45369;BME280;51342;55.250;37.668;2022-08-19T08:45:12;100206.28;;;25.02;43.36
45369;BME280;51342;55.250;37.668;2022-08-19T08:47:48;100207.28;;;25.15;43.65
45369;BME280;51342;55.250;37.668;2022-08-19T08:50:42;100205.53;;;25.21;43.96
45369;BME280;51342;55.250;37.668;2022-08-19T08:53:17;100210.91;;;25.30;42.32
45369;BME280;51342;55.250;37.668;2022-08-19T08:55:49;100210.00;;;25.30;42.19
45369;BME280;51342;55.250;37.668;2022-08-19T08:58:30;100214.38;;;25.23;41.44
45369;BME280;51342;55.250;37.668;2022-08-19T09:01:03;100211.72;;;25.19;41.71
45369;BME280;51342;55.250;37.668;2022-08-19T09:03:36;100217.00;;;25.14;40.98
45369;BME280;51342;55.250;37.668;2022-08-19T09:06:32;100220.50;;;25.15;41.99
45369;BME280;51342;55.250;37.668;2022-08-19T09:09:24;100216.16;;;25.21;41.64
45369;BME280;51342;55.250;37.668;2022-08-19T09:14:43;100214.34;;;25.14;41.48
45369;BME280;51342;55.250;37.668;2022-08-19T09:17:22;100219.63;;;25.17;42.02
45369;BME280;51342;55.250;37.668;2022-08-19T09:20:19;100223.16;;;25.16;41.93
45369;BME280;51342;55.250;37.668;2022-08-19T09:22:51;100217.88;;;25.16;41.87
45369;BME280;51342;55.250;37.668;2022-08-19T09:25:23;100213.41;;;25.12;41.03
45369;BME280;51342;55.250;37.668;2022-08-19T09:27:55;100231.06;;;25.08;42.04
45369;BME280;51342;55.250;37.668;2022-08-19T09:30:31;100227.47;;;25.02;41.86
45369;BME280;51342;55.250;37.668;2022-08-19T09:33:03;100225.66;;;24.96;40.75
45369;BME280;51342;55.250;37.668;2022-08-19T09:35:35;100233.56;;;24.93;39.44
45369;BME280;51342;55.250;37.668;2022-08-19T09:38:09;100231.75;;;24.88;39.82
45369;BME280;51342;55.250;37.668;2022-08-19T09:40:40;100245.81;;;24.83;39.49
45369;BME280;51342;55.250;37.668;2022-08-19T09:43:12;100240.53;;;24.79;39.45
45369;BME280;51342;55.250;37.668;2022-08-19T09:45:43;100238.72;;;24.76;40.62
45369;BME280;51342;55.250;37.668;2022-08-19T09:48:21;100245.78;;;24.77;40.65
45369;BME280;51342;55.250;37.668;2022-08-19T09:50:52;100245.81;;;24.83;41.64
45369;BME280;51342;55.250;37.668;2022-08-19T09:53:24;100246.75;;;24.89;41.11
45369;BME280;51342;55.250;37.668;2022-08-19T09:55:55;100240.59;;;24.90;41.06
45369;BME280;51342;55.250;37.668;2022-08-19T09:58:27;100240.59;;;24.90;40.08
45369;BME280;51342;55.250;37.668;2022-08-19T10:01:01;100241.47;;;24.90;38.51
45369;BME280;51342;55.250;37.668;2022-08-19T10:03:35;100239.69;;;24.88;38.52
45369;BME280;51342;55.250;37.668;2022-08-19T10:06:07;100243.22;;;24.88;38.16
45369;BME280;51342;55.250;37.668;2022-08-19T10:08:40;100245.03;;;24.91;38.58
45369;BME280;51342;55.250;37.668;2022-08-19T10:11:12;100250.31;;;24.94;39.84
45369;BME280;51342;55.250;37.668;2022-08-19T10:13:47;100250.38;;;24.97;38.85
45369;BME280;51342;55.250;37.668;2022-08-19T10:16:21;100256.53;;;24.99;38.82
45369;BME280;51342;55.250;37.668;2022-08-19T10:18:54;100252.09;;;24.95;38.42
45369;BME280;51342;55.250;37.668;2022-08-19T10:21:28;100252.09;;;24.93;37.24
45369;BME280;51342;55.250;37.668;2022-08-19T10:24:02;100269.75;;;24.93;37.59
45369;BME280;51342;55.250;37.668;2022-08-19T10:26:38;100259.16;;;24.91;37.21
45369;BME280;51342;55.250;37.668;2022-08-19T10:29:13;100247.63;;;24.88;36.73
45369;BME280;51342;55.250;37.668;2022-08-19T10:31:47;100260.03;;;24.92;36.85
45369;BME280;51342;55.250;37.668;2022-08-19T10:34:18;100244.19;;;24.96;37.74
45369;BME280;51342;55.250;37.668;2022-08-19T10:36:50;100250.38;;;25.00;37.62
45369;BME280;51342;55.250;37.668;2022-08-19T10:39:22;100248.66;;;25.03;37.31
45369;BME280;51342;55.250;37.668;2022-08-19T10:41:54;100255.72;;;25.03;36.82
45369;BME280;51342;55.250;37.668;2022-08-19T10:44:27;100257.44;;;24.99;35.92
45369;BME280;51342;55.250;37.668;2022-08-19T10:47:02;100255.63;;;24.95;35.30
45369;BME280;51342;55.250;37.668;2022-08-19T10:49:33;100252.09;;;24.95;36.13
45369;BME280;51342;55.250;37.668;2022-08-19T10:52:25;100249.47;;;24.96;34.44
45369;BME280;51342;55.250;37.668;2022-08-19T10:55:06;100245.97;;;24.99;35.15
45369;BME280;51342;55.250;37.668;2022-08-19T10:57:56;100248.59;;;25.00;35.67
45369;BME280;51342;55.250;37.668;2022-08-19T11:00:28;100242.47;;;25.04;35.54
45369;BME280;51342;55.250;37.668;2022-08-19T11:03:02;100249.66;;;25.13;35.86
45369;BME280;51342;55.250;37.668;2022-08-19T11:05:33;100255.81;;;25.15;35.25
45369;BME280;51342;55.250;37.668;2022-08-19T11:08:05;100236.41;;;25.15;35.55
45369;BME280;51342;55.250;37.668;2022-08-19T11:10:42;100246.16;;;25.19;35.16
45369;BME280;51342;55.250;37.668;2022-08-19T11:13:13;100255.81;;;25.17;35.81
45369;BME280;51342;55.250;37.668;2022-08-19T11:15:45;100255.78;;;25.10;35.37
45369;BME280;51342;55.250;37.668;2022-08-19T11:18:18;100259.28;;;25.06;35.79
45369;BME280;51342;55.250;37.668;2022-08-19T11:20:49;100245.09;;;25.01;35.81
45369;BME280;51342;55.250;37.668;2022-08-19T11:23:21;100251.25;;;24.99;36.30
45369;BME280;51342;55.250;37.668;2022-08-19T11:25:52;100241.53;;;24.98;35.89
45369;BME280;51342;55.250;37.668;2022-08-19T11:28:24;100239.78;;;25.00;34.92
45369;BME280;51342;55.250;37.668;2022-08-19T11:30:55;100234.50;;;25.01;35.41
45369;BME280;51342;55.250;37.668;2022-08-19T11:33:27;100242.50;;;25.06;35.01
45369;BME280;51342;55.250;37.668;2022-08-19T11:35:58;100234.56;;;25.06;35.43
45369;BME280;51342;55.250;37.668;2022-08-19T11:38:31;100231.03;;;25.05;36.04
45369;BME280;51342;55.250;37.668;2022-08-19T11:41:06;100250.50;;;25.09;36.25
45369;BME280;51342;55.250;37.668;2022-08-19T11:43:38;100255.78;;;25.07;35.46
45369;BME280;51342;55.250;37.668;2022-08-19T11:46:14;100243.34;;;25.02;36.31
45369;BME280;51342;55.250;37.668;2022-08-19T11:48:46;100253.88;;;24.96;36.19
45369;BME280;51342;55.250;37.668;2022-08-19T11:51:21;100252.09;;;24.92;37.26
45369;BME280;51342;55.250;37.668;2022-08-19T11:53:57;100251.16;;;24.90;36.86
45369;BME280;51342;55.250;37.668;2022-08-19T11:56:29;100257.38;;;24.92;36.17
45369;BME280;51342;55.250;37.668;2022-08-19T11:59:00;100264.44;;;24.93;36.98
45369;BME280;51342;55.250;37.668;2022-08-19T12:01:32;100267.09;;;24.93;36.56
45369;BME280;51342;55.250;37.668;2022-08-19T12:04:04;100261.81;;;24.96;36.81
45369;BME280;51342;55.250;37.668;2022-08-19T12:06:37;100256.50;;;24.96;37.29
45369;BME280;51342;55.250;37.668;2022-08-19T12:09:12;100259.16;;;24.94;37.08
45369;BME280;51342;55.250;37.668;2022-08-19T12:11:45;100253.84;;;24.93;37.89
45369;BME280;51342;55.250;37.668;2022-08-19T12:14:17;100263.56;;;24.94;36.47
45369;BME280;51342;55.250;37.668;2022-08-19T12:16:48;100250.31;;;24.91;36.82
45369;BME280;51342;55.250;37.668;2022-08-19T12:19:22;100261.75;;;24.90;37.54
45369;BME280;51342;55.250;37.668;2022-08-19T12:21:59;100259.97;;;24.85;37.60
45369;BME280;51342;55.250;37.668;2022-08-19T12:24:32;100258.13;;;24.78;38.01
45369;BME280;51342;55.250;37.668;2022-08-19T12:27:05;100265.19;;;24.73;38.37
45369;BME280;51342;55.250;37.668;2022-08-19T12:29:36;100255.38;;;24.63;37.86
45369;BME280;51342;55.250;37.668;2022-08-19T12:32:08;100265.91;;;24.60;38.46
45369;BME280;51342;55.250;37.668;2022-08-19T12:34:40;100270.25;;;24.53;38.79
45369;BME280;51342;55.250;37.668;2022-08-19T12:37:11;100276.44;;;24.51;39.63
45369;BME280;51342;55.250;37.668;2022-08-19T12:39:43;100275.44;;;24.43;39.31
45369;BME280;51342;55.250;37.668;2022-08-19T12:42:15;100284.19;;;24.36;39.61
45369;BME280;51342;55.250;37.668;2022-08-19T12:44:49;100276.16;;;24.29;39.45
45369;BME280;51342;55.250;37.668;2022-08-19T12:47:20;100278.75;;;24.26;40.16
45369;BME280;51342;55.250;37.668;2022-08-19T12:49:52;100288.38;;;24.21;40.00
45369;BME280;51342;55.250;37.668;2022-08-19T12:52:25;100287.50;;;24.18;40.13
45369;BME280;51342;55.250;37.668;2022-08-19T12:54:58;100291.84;;;24.13;39.77
45369;BME280;51342;55.250;37.668;2022-08-19T12:57:29;100303.22;;;24.07;39.86
45369;BME280;51342;55.250;37.668;2022-08-19T13:00:15;100295.22;;;24.02;40.84
45369;BME280;51342;55.250;37.668;2022-08-19T13:02:49;100294.25;;;23.96;39.95
45369;BME280;51342;55.250;37.668;2022-08-19T13:05:25;100295.09;;;23.92;40.66
45369;BME280;51342;55.250;37.668;2022-08-19T13:07:58;100300.34;;;23.89;40.83
45369;BME280;51342;55.250;37.668;2022-08-19T13:10:33;100295.88;;;23.83;40.72
45369;BME280;51342;55.250;37.668;2022-08-19T13:13:08;100296.47;;;23.62;41.08
45369;BME280;51342;55.250;37.668;2022-08-19T13:15:41;100289.50;;;23.69;40.86
45369;BME280;51342;55.250;37.668;2022-08-19T13:18:13;100285.97;;;23.68;41.63
45369;BME280;51342;55.250;37.668;2022-08-19T13:20:45;100292.22;;;23.73;41.17